createdAt,value
2018-12-20T00:01:50.918Z,86.77
2018-12-20T00:04:27.952Z,86.80
2018-12-20T00:07:05.051Z,86.64
2018-12-20T00:09:37.495Z,86.63
2018-12-20T00:12:11.415Z,86.37
2018-12-20T00:14:44.236Z,86.67
2018-12-20T00:17:22.652Z,86.55
2018-12-20T00:19:55.241Z,87.43
2018-12-20T00:22:28.842Z,87.34
2018-12-20T00:25:05.918Z,87.64
2018-12-20T00:27:38.932Z,87.23
2018-12-20T00:30:11.959Z,87.23
2018-12-20T00:32:45.456Z,86.72
2018-12-20T00:35:22.953Z,86.74
2018-12-20T00:38:00.392Z,86.40
2018-12-20T00:40:36.908Z,86.17
2018-12-20T00:43:09.880Z,85.62
2018-12-20T00:45:42.601Z,85.95
2018-12-20T00:48:15.522Z,86.23
2018-12-20T00:50:48.459Z,86.21
2018-12-20T00:53:22.171Z,86.20
2018-12-20T01:00:51.808Z,86.11
2018-12-20T01:08:30.221Z,86.15
2018-12-20T01:11:03.635Z,86.00
2018-12-20T01:13:36.588Z,85.73
2018-12-20T01:16:08.855Z,85.65
2018-12-20T01:18:45.952Z,85.67
2018-12-20T01:21:20.263Z,85.91
2018-12-20T01:23:53.445Z,85.51
2018-12-20T01:26:30.352Z,86.02
2018-12-20T01:29:04.009Z,86.54
2018-12-20T01:31:40.348Z,86.44
2018-12-20T01:34:13.483Z,86.48
2018-12-20T01:36:46.765Z,86.43
2018-12-20T01:39:19.701Z,86.70
2018-12-20T01:41:54.841Z,86.24
2018-12-20T01:44:31.864Z,86.26
2018-12-20T01:47:02.933Z,86.32
2018-12-20T01:49:39.995Z,85.90
2018-12-20T01:52:17.306Z,86.34
2018-12-20T01:54:54.621Z,86.50
2018-12-20T01:57:25.586Z,86.53
2018-12-20T01:59:59.441Z,86.45
2018-12-20T02:02:30.660Z,86.19
2018-12-20T02:05:07.206Z,86.52
2018-12-20T02:20:16.908Z,87.18
2018-12-20T02:22:53.666Z,87.15
2018-12-20T02:25:27.696Z,87.18
2018-12-20T02:28:01.339Z,86.29
2018-12-20T02:30:31.866Z,86.65
2018-12-20T02:33:04.140Z,86.90
2018-12-20T02:35:40.780Z,87.21
2018-12-20T02:38:11.635Z,87.44
2018-12-20T02:40:44.731Z,86.94
2018-12-20T02:43:21.077Z,87.18
2018-12-20T02:45:53.583Z,87.22
2018-12-20T02:48:25.983Z,87.38
2018-12-20T02:51:03.308Z,87.33
2018-12-20T02:53:34.180Z,87.94
2018-12-20T02:56:12.547Z,87.85
2018-12-20T02:58:45.531Z,87.95
2018-12-20T03:01:19.428Z,88.25
2018-12-20T03:03:53.559Z,88.29
2018-12-20T03:06:26.891Z,88.41
2018-12-20T03:09:06.390Z,88.26
2018-12-20T03:11:44.355Z,88.57
2018-12-20T03:14:21.942Z,88.91
2018-12-20T03:16:56.142Z,88.89
2018-12-20T03:19:33.147Z,88.68
2018-12-20T03:22:07.391Z,88.39
2018-12-20T03:24:41.502Z,88.14
2018-12-20T03:27:14.518Z,87.55
2018-12-20T03:29:51.883Z,87.86
2018-12-20T03:32:25.725Z,87.93
2018-12-20T03:34:58.961Z,88.05
2018-12-20T03:37:32.633Z,88.11
2018-12-20T03:40:06.554Z,88.65
2018-12-20T03:42:40.026Z,88.37
2018-12-20T03:49:00.618Z,88.29
2018-12-20T03:51:37.164Z,88.04
2018-12-20T03:54:09.464Z,88.15
2018-12-20T03:56:42.766Z,88.39
2018-12-20T03:59:15.928Z,88.34
2018-12-20T04:01:48.811Z,88.06
2018-12-20T04:04:21.921Z,88.20
2018-12-20T04:06:54.446Z,88.53
2018-12-20T04:09:30.382Z,88.79
2018-12-20T04:12:03.713Z,88.49
2018-12-20T04:14:40.843Z,88.81
2018-12-20T04:17:11.891Z,89.23
2018-12-20T04:19:44.114Z,89.01
2018-12-20T04:24:55.825Z,88.60
2018-12-20T04:27:28.611Z,89.10
2018-12-20T04:30:01.744Z,89.16
2018-12-20T04:32:33.989Z,89.04
2018-12-20T04:35:07.624Z,88.94
2018-12-20T04:37:40.405Z,88.69
2018-12-20T04:40:13.615Z,89.05
2018-12-20T04:42:51.248Z,89.37
2018-12-20T04:45:22.165Z,89.52
2018-12-20T04:48:00.686Z,88.77
2018-12-20T04:50:37.507Z,88.69
2018-12-20T04:53:10.542Z,89.06
2018-12-20T04:55:44.485Z,88.65
2018-12-20T04:58:17.544Z,88.47
2018-12-20T05:00:56.399Z,88.71
2018-12-20T05:03:33.727Z,89.39
2018-12-20T05:06:10.427Z,89.24
2018-12-20T05:08:43.553Z,88.98
2018-12-20T05:11:20.828Z,88.27
2018-12-20T05:13:57.271Z,88.70
2018-12-20T05:16:34.594Z,88.41
2018-12-20T05:19:09.199Z,88.37
2018-12-20T05:21:45.450Z,89.01
2018-12-20T05:24:21.967Z,88.77
2018-12-20T05:27:01.848Z,89.20
2018-12-20T05:29:32.962Z,89.53
2018-12-20T05:32:11.015Z,89.55
2018-12-20T05:34:44.300Z,90.06
2018-12-20T05:37:16.949Z,90.27
2018-12-20T05:39:53.572Z,89.87
2018-12-20T05:42:29.426Z,89.71
2018-12-20T05:45:02.091Z,89.46
2018-12-20T05:47:39.958Z,89.85
2018-12-20T05:50:12.428Z,89.73
2018-12-20T05:52:45.374Z,89.69
2018-12-20T05:55:22.825Z,89.20
2018-12-20T05:58:06.429Z,89.00
2018-12-20T06:00:45.226Z,89.32
2018-12-20T06:03:21.271Z,89.30
2018-12-20T06:05:54.604Z,89.26
2018-12-20T06:08:27.821Z,88.95
2018-12-20T06:11:01.094Z,89.26
2018-12-20T06:13:32.915Z,89.79
2018-12-20T06:16:12.680Z,89.51
2018-12-20T06:18:43.567Z,89.34
2018-12-20T06:21:20.591Z,89.58
2018-12-20T06:23:53.511Z,89.63
2018-12-20T06:26:30.489Z,89.61
2018-12-20T06:29:08.381Z,89.84
2018-12-20T06:31:41.184Z,89.65
2018-12-20T06:34:18.290Z,89.51
2018-12-20T06:36:49.719Z,89.41
2018-12-20T06:39:26.346Z,88.73
2018-12-20T06:42:15.273Z,88.86
2018-12-20T06:44:52.124Z,88.95
2018-12-20T06:47:29.121Z,88.27
2018-12-20T06:50:06.820Z,88.45
2018-12-20T06:52:39.527Z,88.41
2018-12-20T06:55:10.386Z,88.67
2018-12-20T06:57:49.135Z,88.47
2018-12-20T07:00:21.777Z,88.76
2018-12-20T07:02:58.065Z,88.64
2018-12-20T07:05:34.896Z,88.75
2018-12-20T07:08:05.641Z,89.08
2018-12-20T07:10:42.219Z,89.82
2018-12-20T07:13:15.920Z,90.57
2018-12-20T07:15:52.701Z,90.87
2018-12-20T07:18:29.849Z,91.02
2018-12-20T07:21:02.224Z,91.32
2018-12-20T07:23:41.404Z,91.87
2018-12-20T07:26:14.545Z,91.91
2018-12-20T07:28:47.218Z,92.61
2018-12-20T07:31:23.833Z,93.66
2018-12-20T07:34:00.285Z,93.89
2018-12-20T07:36:38.402Z,93.51
2018-12-20T07:39:12.864Z,93.20
2018-12-20T07:41:50.287Z,92.79
2018-12-20T07:44:27.241Z,93.41
2018-12-20T07:46:59.841Z,93.28
2018-12-20T07:49:34.005Z,93.57
2018-12-20T07:52:12.318Z,93.78
2018-12-20T07:54:50.115Z,93.71
2018-12-20T07:57:24.871Z,93.97
2018-12-20T07:59:57.429Z,94.45
2018-12-20T08:02:28.651Z,94.75
2018-12-20T08:05:02.771Z,94.90
2018-12-20T08:07:34.026Z,95.04
2018-12-20T08:10:11.318Z,95.28
2018-12-20T08:12:48.306Z,95.37
2018-12-20T08:15:22.197Z,95.54
2018-12-20T08:17:55.315Z,95.49
2018-12-20T08:20:28.515Z,95.37
2018-12-20T08:23:01.004Z,95.90
2018-12-20T08:25:35.089Z,95.49
2018-12-20T08:28:08.021Z,95.81
2018-12-20T08:30:40.327Z,95.86
2018-12-20T08:33:13.766Z,96.29
2018-12-20T08:35:46.388Z,96.02
2018-12-20T08:38:20.209Z,96.61
2018-12-20T08:40:53.398Z,96.65
2018-12-20T08:43:26.665Z,96.33
2018-12-20T08:45:59.778Z,97.05
2018-12-20T08:48:33.746Z,96.66
2018-12-20T08:51:06.938Z,96.61
2018-12-20T08:53:40.231Z,96.77
2018-12-20T08:56:12.704Z,97.15
2018-12-20T08:58:50.402Z,96.73
2018-12-20T09:01:29.798Z,96.73
2018-12-20T09:04:01.099Z,96.95
2018-12-20T09:06:34.246Z,96.24
2018-12-20T09:09:10.528Z,96.19
2018-12-20T09:11:43.539Z,96.28
2018-12-20T09:14:17.651Z,96.30
2018-12-20T09:16:50.210Z,96.21
2018-12-20T09:19:23.054Z,96.40
2018-12-20T09:21:55.494Z,95.94
2018-12-20T09:24:28.713Z,95.81
2018-12-20T09:27:05.496Z,95.53
2018-12-20T09:29:38.010Z,95.89
2018-12-20T09:32:10.768Z,95.75
2018-12-20T09:34:46.983Z,95.77
2018-12-20T09:37:20.903Z,95.34
2018-12-20T09:39:53.767Z,95.71
2018-12-20T09:42:31.732Z,95.79
2018-12-20T09:45:42.167Z,94.98
2018-12-20T09:48:15.027Z,95.54
2018-12-20T09:50:47.174Z,95.16
2018-12-20T09:53:20.306Z,95.07
2018-12-20T09:55:57.495Z,94.64
2018-12-20T09:58:30.088Z,94.64
2018-12-20T10:01:06.611Z,94.42
2018-12-20T10:03:39.485Z,94.00
2018-12-20T10:06:11.663Z,94.07
2018-12-20T10:08:44.845Z,93.99
2018-12-20T10:11:18.057Z,93.86
2018-12-20T10:13:55.149Z,93.49
2018-12-20T10:16:27.575Z,93.08
2018-12-20T10:19:00.585Z,93.07
2018-12-20T10:21:33.475Z,93.18
2018-12-20T10:24:04.455Z,93.05
2018-12-20T10:26:34.884Z,93.02
2018-12-20T10:29:07.411Z,92.86
2018-12-20T10:31:37.534Z,93.13
2018-12-20T10:34:07.930Z,93.24
2018-12-20T10:36:40.813Z,92.99
2018-12-20T10:39:13.764Z,92.82
2018-12-20T10:41:50.933Z,93.35
2018-12-20T10:44:24.876Z,93.85
2018-12-20T10:47:11.466Z,93.69
2018-12-20T10:49:47.915Z,93.20
2018-12-20T10:52:21.013Z,93.03
2018-12-20T10:54:54.464Z,93.42
2018-12-20T10:57:27.071Z,93.18
2018-12-20T11:00:00.018Z,93.28
2018-12-20T11:02:38.797Z,92.87
2018-12-20T11:05:22.103Z,93.17
2018-12-20T11:07:59.426Z,93.05
2018-12-20T11:10:32.535Z,92.22
2018-12-20T11:13:11.064Z,92.37
2018-12-20T11:15:43.600Z,92.39
2018-12-20T11:18:19.997Z,91.98
2018-12-20T11:20:52.821Z,91.51
2018-12-20T11:23:25.502Z,91.37
2018-12-20T11:25:58.118Z,91.07
2018-12-20T11:28:30.491Z,90.58
2018-12-20T11:31:02.760Z,90.14
2018-12-20T11:33:35.809Z,90.20
2018-12-20T11:36:12.010Z,89.23
2018-12-20T11:38:45.887Z,89.04
2018-12-20T11:41:18.172Z,88.81
2018-12-20T11:43:51.336Z,89.28
2018-12-20T11:46:22.391Z,89.41
2018-12-20T11:48:53.102Z,88.96
2018-12-20T11:51:25.235Z,89.22
2018-12-20T11:53:58.261Z,89.76
2018-12-20T11:56:34.441Z,89.45
2018-12-20T11:59:09.141Z,89.46
2018-12-20T12:01:41.785Z,89.84
2018-12-20T12:04:14.580Z,89.06
2018-12-20T12:06:46.837Z,90.22
2018-12-20T12:09:19.999Z,90.13
2018-12-20T12:11:52.304Z,89.94
2018-12-20T12:14:24.433Z,90.46
2018-12-20T12:16:57.578Z,90.06
2018-12-20T12:19:30.682Z,90.34
2018-12-20T12:22:07.749Z,90.13
2018-12-20T12:24:45.105Z,89.92
2018-12-20T12:27:23.173Z,90.06
2018-12-20T12:30:05.292Z,90.42
2018-12-20T12:32:38.474Z,90.90
2018-12-20T12:35:10.613Z,90.45
2018-12-20T12:37:50.070Z,90.69
2018-12-20T12:40:27.453Z,90.62
2018-12-20T12:43:00.151Z,90.49
2018-12-20T12:45:34.791Z,90.79
2018-12-20T12:48:07.256Z,90.72
2018-12-20T12:50:40.321Z,90.97
2018-12-20T12:53:16.999Z,91.11
2018-12-20T12:55:50.169Z,91.22
2018-12-20T12:58:26.506Z,91.26
2018-12-20T13:01:04.659Z,91.41
2018-12-20T13:03:37.671Z,91.74
2018-12-20T13:06:14.246Z,92.17
2018-12-20T13:08:47.535Z,92.03
2018-12-20T13:11:24.773Z,92.29
2018-12-20T13:14:01.911Z,92.41
2018-12-20T13:16:35.250Z,92.37
2018-12-20T13:19:11.744Z,92.97
2018-12-20T13:21:48.212Z,92.52
2018-12-20T13:24:21.168Z,92.33
2018-12-20T13:26:55.049Z,92.16
2018-12-20T13:29:30.675Z,92.07
2018-12-20T13:32:05.894Z,92.02
2018-12-20T13:34:39.108Z,92.34
2018-12-20T13:37:15.805Z,92.35
2018-12-20T13:39:48.075Z,91.98
2018-12-20T13:42:21.547Z,91.91
2018-12-20T13:44:54.750Z,92.12
2018-12-20T13:47:30.048Z,91.44
2018-12-20T13:50:03.906Z,91.50
2018-12-20T13:52:41.082Z,91.27
2018-12-20T13:55:18.428Z,92.08
2018-12-20T13:57:54.861Z,92.07
2018-12-20T14:00:31.981Z,93.03
2018-12-20T14:03:06.572Z,92.52
2018-12-20T14:05:39.456Z,92.69
2018-12-20T14:08:12.749Z,93.27
2018-12-20T14:10:49.670Z,93.35
2018-12-20T14:13:28.114Z,93.37
2018-12-20T14:16:05.567Z,93.61
2018-12-20T14:18:38.900Z,93.68
2018-12-20T14:21:16.957Z,93.68
2018-12-20T14:23:48.063Z,93.84
2018-12-20T14:26:24.745Z,93.94
2018-12-20T14:28:56.634Z,93.66
2018-12-20T14:31:29.475Z,93.90
2018-12-20T14:34:00.011Z,93.82
2018-12-20T14:36:33.347Z,94.00
2018-12-20T14:39:07.938Z,94.07
2018-12-20T14:41:40.417Z,93.77
2018-12-20T14:44:12.905Z,94.07
2018-12-20T14:46:46.354Z,94.26
2018-12-20T14:49:22.949Z,94.49
2018-12-20T14:51:56.111Z,94.51
2018-12-20T14:54:29.118Z,94.51
2018-12-20T14:57:02.773Z,94.56
2018-12-20T14:59:33.718Z,94.31
2018-12-20T15:02:06.617Z,94.61
2018-12-20T15:04:39.816Z,94.80
2018-12-20T15:07:12.005Z,94.70
2018-12-20T15:09:44.746Z,94.46
2018-12-20T15:12:21.479Z,94.44
2018-12-20T15:14:59.600Z,94.43
2018-12-20T15:17:33.853Z,94.32
2018-12-20T15:20:09.489Z,94.41
2018-12-20T15:22:41.209Z,94.76
2018-12-20T15:25:19.476Z,94.32
2018-12-20T15:27:49.964Z,95.12
2018-12-20T15:30:23.977Z,95.42
2018-12-20T15:32:56.973Z,95.43
2018-12-20T15:35:36.016Z,95.36
2018-12-20T15:38:07.556Z,94.93
2018-12-20T15:40:40.613Z,95.43
2018-12-20T15:43:13.375Z,95.33
2018-12-20T15:45:46.571Z,95.29
2018-12-20T15:48:19.596Z,95.70
2018-12-20T15:50:52.249Z,95.67
2018-12-20T15:53:24.445Z,95.65
2018-12-20T15:56:02.650Z,95.80
2018-12-20T15:58:35.590Z,95.60
2018-12-20T16:01:13.627Z,95.46
2018-12-20T16:03:49.333Z,95.86
2018-12-20T16:06:22.890Z,95.59
2018-12-20T16:08:54.557Z,96.09
2018-12-20T16:11:28.028Z,96.36
2018-12-20T16:14:00.508Z,96.62
2018-12-20T16:16:33.428Z,96.51
2018-12-20T16:19:09.574Z,97.00
2018-12-20T16:21:41.640Z,96.96
2018-12-20T16:24:15.122Z,96.63
2018-12-20T16:26:47.810Z,96.76
2018-12-20T16:29:20.809Z,97.04
2018-12-20T16:31:53.079Z,96.64
2018-12-20T16:34:26.048Z,96.71
2018-12-20T16:36:56.171Z,96.19
2018-12-20T16:39:28.567Z,96.23
2018-12-20T16:42:01.562Z,96.18
2018-12-20T16:44:38.540Z,96.30
2018-12-20T16:47:09.942Z,96.14
2018-12-20T16:49:42.364Z,96.31
2018-12-20T16:52:15.381Z,96.47
2018-12-20T16:54:48.388Z,96.34
2018-12-20T16:57:20.559Z,96.64
2018-12-20T16:59:50.936Z,97.20
2018-12-20T17:02:28.047Z,97.12
2018-12-20T17:05:00.839Z,97.00
2018-12-20T17:07:33.250Z,96.90
2018-12-20T17:10:07.306Z,96.73
2018-12-20T17:12:39.656Z,97.06
2018-12-20T17:15:17.593Z,97.20
2018-12-20T17:17:50.122Z,97.19
2018-12-20T17:20:23.062Z,97.03
2018-12-20T17:22:55.382Z,96.91
2018-12-20T17:25:29.173Z,97.08
2018-12-20T17:27:59.396Z,97.05
2018-12-20T17:30:35.799Z,96.69
2018-12-20T17:33:12.113Z,97.08
2018-12-20T17:35:44.463Z,96.96
2018-12-20T17:38:14.757Z,96.62
2018-12-20T17:40:51.024Z,96.59
2018-12-20T17:43:24.054Z,96.41
2018-12-20T17:46:00.190Z,96.21
2018-12-20T17:48:36.793Z,96.25
2018-12-20T17:51:09.610Z,96.55
2018-12-20T17:53:48.068Z,96.72
2018-12-20T17:56:20.960Z,97.52
2018-12-20T17:58:53.343Z,97.88
2018-12-20T18:01:24.394Z,97.07
2018-12-20T18:04:00.610Z,97.33
2018-12-20T18:06:32.935Z,97.63
2018-12-20T18:09:08.716Z,97.63
2018-12-20T18:11:46.443Z,97.60
2018-12-20T18:14:17.464Z,97.90
2018-12-20T18:16:47.655Z,97.29
2018-12-20T18:19:20.509Z,97.35
2018-12-20T18:21:52.866Z,97.30
2018-12-20T18:24:29.023Z,97.54
2018-12-20T18:27:01.591Z,97.31
2018-12-20T18:29:34.728Z,97.23
2018-12-20T18:32:08.419Z,97.67
2018-12-20T18:34:41.672Z,97.52
2018-12-20T18:37:14.296Z,97.74
2018-12-20T18:39:45.256Z,97.26
2018-12-20T18:42:17.401Z,97.22
2018-12-20T18:44:49.769Z,97.33
2018-12-20T18:47:20.125Z,97.55
2018-12-20T18:49:52.268Z,97.70
2018-12-20T18:52:25.308Z,97.62
2018-12-20T18:54:58.495Z,97.36
2018-12-20T18:57:29.401Z,97.23
2018-12-20T19:00:02.622Z,97.30
2018-12-20T19:02:35.809Z,97.59
2018-12-20T19:05:09.189Z,97.77
2018-12-20T19:07:41.996Z,98.03
2018-12-20T19:10:15.043Z,98.21
2018-12-20T19:12:51.317Z,97.71
2018-12-20T19:15:28.556Z,97.91
2018-12-20T19:18:01.106Z,97.94
2018-12-20T19:20:34.710Z,97.86
2018-12-20T19:23:07.918Z,97.64
2018-12-20T19:25:45.576Z,97.55
2018-12-20T19:28:18.562Z,97.37
2018-12-20T19:30:50.935Z,97.53
2018-12-20T19:33:24.155Z,97.46
2018-12-20T19:35:54.413Z,97.50
2018-12-20T19:38:26.750Z,97.07
2018-12-20T19:40:59.527Z,97.12
2018-12-20T19:43:31.176Z,97.55
2018-12-20T19:46:04.139Z,97.21
2018-12-20T19:48:34.293Z,97.41
2018-12-20T19:51:11.387Z,97.37
2018-12-20T19:53:43.634Z,97.32
2018-12-20T19:56:17.037Z,97.29
2018-12-20T19:58:49.788Z,97.22
2018-12-20T20:01:21.871Z,96.87
2018-12-20T20:03:54.301Z,96.99
2018-12-20T20:06:27.209Z,96.79
2018-12-20T20:09:00.144Z,96.98
2018-12-20T20:11:40.781Z,97.16
2018-12-20T20:14:11.825Z,96.73
2018-12-20T20:16:50.919Z,97.27
2018-12-20T20:19:29.845Z,97.17
2018-12-20T20:22:05.347Z,96.86
2018-12-20T20:24:38.293Z,97.05
2018-12-20T20:27:12.067Z,97.17
2018-12-20T20:29:46.655Z,97.10
2018-12-20T20:32:41.149Z,97.24
2018-12-20T20:35:16.395Z,96.18
2018-12-20T20:37:51.912Z,96.01
2018-12-20T20:40:25.316Z,95.97
2018-12-20T20:42:59.463Z,96.33
2018-12-20T20:45:33.777Z,96.64
2018-12-20T20:48:12.774Z,96.40
2018-12-20T20:50:46.569Z,96.06
2018-12-20T20:53:20.737Z,96.09
2018-12-20T20:55:54.094Z,96.01
2018-12-20T20:58:30.823Z,95.83
2018-12-20T21:01:07.858Z,95.92
2018-12-20T21:03:40.682Z,96.73
2018-12-20T21:06:14.048Z,97.33
2018-12-20T21:08:54.022Z,97.39
2018-12-20T21:11:33.776Z,97.17
2018-12-20T21:14:11.255Z,97.13
2018-12-20T21:16:44.026Z,96.75
2018-12-20T21:19:17.132Z,96.88
2018-12-20T21:21:50.099Z,97.12
2018-12-20T21:24:27.517Z,97.36
2018-12-20T21:27:06.958Z,97.80
2018-12-20T21:29:40.709Z,97.93
2018-12-20T21:32:15.937Z,97.77
2018-12-20T21:34:51.331Z,98.28
2018-12-20T21:37:25.543Z,98.41
2018-12-20T21:39:59.155Z,97.93
2018-12-20T21:42:36.476Z,97.78
2018-12-20T21:45:13.683Z,97.82
2018-12-20T21:47:52.918Z,98.09
2018-12-20T21:50:29.992Z,98.07
2018-12-20T21:53:10.527Z,98.55
2018-12-20T21:55:44.251Z,98.18
2018-12-20T21:58:21.641Z,98.31
2018-12-20T22:00:55.264Z,98.78
2018-12-20T22:03:28.678Z,98.77
2018-12-20T22:06:05.242Z,98.76
2018-12-20T22:08:41.745Z,98.58
2018-12-20T22:11:18.774Z,98.11
2018-12-20T22:13:52.049Z,97.69
2018-12-20T22:16:28.982Z,97.30
2018-12-20T22:19:00.044Z,96.99
2018-12-20T22:21:33.108Z,97.32
2018-12-20T22:24:05.971Z,97.10
2018-12-20T22:26:37.320Z,97.37
2018-12-20T22:29:14.514Z,97.07
2018-12-20T22:31:47.434Z,96.69
2018-12-20T22:34:20.306Z,96.45
2018-12-20T22:36:53.468Z,96.44
2018-12-20T22:39:26.501Z,96.31
2018-12-20T22:42:00.707Z,96.85
2018-12-20T22:44:38.866Z,96.74
2018-12-20T22:47:12.745Z,96.37
2018-12-20T22:49:46.952Z,96.15
2018-12-20T22:52:19.859Z,96.62
2018-12-20T22:54:54.107Z,96.50
2018-12-20T22:57:27.481Z,96.05
2018-12-20T23:00:00.258Z,95.99
2018-12-20T23:02:33.310Z,96.11
2018-12-20T23:05:11.385Z,96.64
2018-12-20T23:07:45.066Z,96.58
2018-12-20T23:10:22.788Z,96.28
2018-12-20T23:12:55.721Z,96.28
2018-12-20T23:15:29.226Z,96.24
2018-12-20T23:18:04.004Z,97.59
2018-12-20T23:20:37.671Z,98.70
2018-12-20T23:23:14.613Z,98.98
2018-12-20T23:25:51.263Z,99.92
2018-12-20T23:28:28.328Z,100.00
2018-12-20T23:31:01.576Z,100.00
2018-12-20T23:33:35.342Z,100.00
2018-12-20T23:36:15.068Z,100.00
2018-12-20T23:38:48.988Z,100.00
2018-12-20T23:41:22.420Z,100.00
2018-12-20T23:43:53.755Z,100.00
2018-12-20T23:46:27.484Z,100.00
2018-12-20T23:49:01.752Z,100.00
2018-12-20T23:51:35.772Z,100.00
2018-12-20T23:54:09.223Z,100.00
2018-12-20T23:56:47.580Z,100.00
2018-12-20T23:59:20.916Z,100.00
